Latest Weather Observations for Murrurundi Gap

IDN60801

Issued at 6:32 pm EST Friday 22 May 2015 (issued every 30 minutes, with the page automatically refreshed every 10 minutes)

About weather observations | Map of weather stations | Latest weather observations for NSW | Other Formats
Station Details ID: 061392 Name: MURRURUNDI GAP AWS Lat: -31.74 Lon: 150.79 Height: 729.4 m
Data from the previous 72 hours. | See also: Recent months for locations in New South Wales
Date/Time
EST
Temp
°C
App
Temp
°C
Dew
Point
Rel
Hum
%
Delta-T
°C
Wind Press
QNH
hPa
Press
MSL
hPa
Rain
since 9 am
mm
Dir
 
Spd
km/h
Gust
km/h
Spd
kts
Gust
kts
22/06:30pm 9.4 -0.1 6.7 83 1.3 SE 46 59 25 32 1022.0 1021.0 6.4
22/06:03pm 9.3 1.2 6.9 85 1.2 SE 39 57 21 31 1022.1 1021.1 6.4
22/06:00pm 9.3 1.2 7.1 86 1.1 SE 39 54 21 29 1022.0 1021.0 6.4
22/05:30pm 9.2 1.2 7.5 89 0.8 SE 39 63 21 34 1021.3 1020.4 6.4
22/05:16pm 9.1 1.1 7.5 90 0.8 SE 39 63 21 34 1021.0 1020.0 6.4
22/05:00pm 9.2 1.0 8.0 92 0.6 SE 41 69 22 37 1020.7 1019.7 6.4
22/04:30pm 9.1 0.4 8.3 95 0.4 SE 44 65 24 35 1019.8 1018.8 6.4
22/04:00pm 9.0 -0.8 8.5 97 0.3 SE 50 74 27 40 1019.1 1018.1 6.4
22/03:50pm 9.1 -0.7 8.6 97 0.3 SE 50 69 27 37 1019.1 1018.1 6.2
22/03:48pm 9.1 -0.7 8.5 96 0.3 SE 50 69 27 37 1019.0 1018.0 6.2
22/03:41pm 9.1 -1.1 8.6 97 0.3 SE 52 74 28 40 1019.0 1018.0 6.2
22/03:30pm 9.2 1.9 8.9 98 0.2 SE 37 57 20 31 1019.2 1018.2 6.2
22/03:23pm 9.6 3.4 9.5 99 0.1 SE 32 54 17 29 1019.2 1018.2 6.2
22/03:09pm 9.6 3.4 9.5 99 0.1 SE 32 44 17 24 1019.1 1018.1 5.8
22/03:05pm 9.5 2.3 9.2 98 0.2 SE 37 56 20 30 1019.0 1018.0 5.6
22/03:00pm 9.6 1.6 9.1 97 0.3 SE 41 56 22 30 1018.7 1017.7 5.4
22/02:56pm 9.9 2.4 9.3 96 0.3 SE 39 54 21 29 1018.5 1017.5 5.0
22/02:41pm 9.6 2.8 9.3 98 0.2 SE 35 54 19 29 1018.5 1017.5 4.8
22/02:35pm 9.4 2.5 8.9 97 0.3 SE 35 50 19 27 1018.4 1017.4 4.6
22/02:30pm 9.5 2.3 9.0 97 0.3 SE 37 54 20 29 1018.5 1017.5 4.4
22/02:02pm 9.5 1.5 8.9 96 0.3 SE 41 67 22 36 1018.4 1017.4 3.8
22/02:00pm 9.4 1.7 8.8 96 0.3 SE 39 56 21 30 1018.5 1017.5 3.8
22/01:30pm 9.8 3.9 9.2 96 0.3 SE 30 52 16 28 1018.5 1017.5 3.2
22/01:07pm 9.9 4.5 9.4 97 0.3 SE 28 56 15 30 1018.4 1017.4 2.4
22/01:04pm 10.0 5.7 9.5 97 0.3 SE 22 54 12 29 1018.5 1017.5 2.2
22/01:00pm 9.7 6.8 9.6 99 0.1 SE 15 24 8 13 1018.5 1017.5 1.8
22/12:54pm 9.8 7.7 9.7 99 0.1 SSE 11 17 6 9 1018.5 1017.5 1.6
22/12:52pm 9.8 7.7 9.7 99 0.1 SSE 11 17 6 9 1018.5 1017.5 1.6
22/12:32pm 9.8 7.7 9.7 99 0.1 SSE 11 17 6 9 1018.7 1017.7 1.0
22/12:30pm 9.7 7.9 9.6 99 0.1 S 9 17 5 9 1018.7 1017.7 0.8
22/12:21pm 9.6 9.1 9.5 99 0.1 W 2 13 1 7 1018.7 1017.7 0.8
22/12:17pm 9.4 8.9 9.3 99 0.1 WNW 2 13 1 7 1018.7 1017.7 0.8
22/12:00pm 9.3 7.8 9.2 99 0.1 WNW 7 17 4 9 1018.8 1017.8 0.6
22/11:30am 8.8 6.8 8.7 99 0.1 NNW 9 13 5 7 1018.8 1017.8 0.4
22/11:00am 8.6 5.8 8.5 99 0.1 NNW 13 15 7 8 1018.8 1017.8 0.2
22/10:30am 8.4 5.9 8.3 99 0.1 NW 11 15 6 8 1019.0 1018.0 0.2
22/10:00am 8.4 5.2 8.3 99 0.0 NW 15 20 8 11 1018.8 1017.8 0.2
22/09:30am 8.5 5.7 8.4 99 0.1 NW 13 15 7 8 1018.5 1017.5 0.2
22/09:00am 8.5 5.7 8.4 99 0.1 NW 13 17 7 9 1018.3 1017.3 6.8
22/08:30am 8.5 4.9 8.4 99 0.1 NW 17 19 9 10 1018.0 1017.0 6.4
22/08:00am 8.3 5.0 8.2 99 0.0 NW 15 20 8 11 1017.9 1016.9 5.6
22/07:30am 8.4 4.8 8.3 99 0.1 NW 17 19 9 10 1017.5 1016.5 3.2
22/07:00am 8.5 6.0 8.4 99 0.1 NNW 11 15 6 8 1017.3 1016.2 2.4
22/06:30am 8.4 6.3 8.3 99 0.1 NW 9 11 5 6 1017.0 1016.0 2.2
22/06:28am 8.4 6.3 8.3 99 0.1 NW 9 11 5 6 1016.9 1015.9 2.2
22/06:04am 8.1 7.3 8.0 99 0.0 SW 2 6 1 3 1016.7 1015.7 2.0
22/06:00am 8.1 6.9 8.0 99 0.0 SSE 4 13 2 7 1016.7 1015.7 2.0
22/05:38am 8.3 5.8 8.2 99 0.0 SE 11 13 6 7 1016.4 1015.4 2.0
22/05:30am 8.3 5.4 8.2 99 0.0 SE 13 15 7 8 1016.4 1015.4 2.0
22/05:19am 8.1 5.2 8.0 99 0.0 SE 13 15 7 8 1016.3 1015.3 2.0
22/05:00am 8.3 5.4 8.2 99 0.0 SE 13 15 7 8 1016.2 1015.1 2.0
22/04:30am 8.3 4.7 8.2 99 0.0 ESE 17 19 9 10 1016.2 1015.1 2.0
22/04:10am 8.4 5.9 8.3 99 0.1 SE 11 17 6 9 1016.4 1015.4 1.8
22/04:00am 8.6 6.9 8.5 99 0.1 SE 7 9 4 5 1016.5 1015.5 1.8
22/03:30am 8.7 8.0 8.6 99 0.1 SSE 2 7 1 4 1016.5 1015.5 1.6
22/03:19am 8.7 7.2 8.6 99 0.1 S 6 7 3 4 1016.6 1015.6 1.6
22/03:00am 8.5 6.4 8.4 99 0.1 ESE 9 11 5 6 1016.6 1015.6 1.6
22/02:30am 8.6 5.8 8.5 99 0.1 SE 13 17 7 9 1016.7 1015.7 1.6
22/02:22am 8.6 5.8 8.5 99 0.1 SE 13 17 7 9 1016.8 1015.8 1.6
22/02:00am 9.0 7.1 8.9 99 0.1 S 9 11 5 6 1017.1 1016.1 1.4
22/01:52am 8.8 6.8 8.7 99 0.1 WSW 9 17 5 9 1017.3 1016.2 1.0
22/01:46am 8.7 6.7 8.6 99 0.1 WSW 9 17 5 9 1017.4 1016.3 1.0
22/01:44am 8.6 6.2 8.5 99 0.1 SW 11 17 6 9 1017.3 1016.2 0.8
22/01:34am 8.6 4.5 8.5 99 0.1 SE 20 26 11 14 1016.9 1015.9 0.8
22/01:30am 8.6 4.1 8.5 99 0.1 SE 22 26 12 14 1016.9 1015.9 0.8
22/01:00am 8.6 3.7 8.5 99 0.1 SE 24 28 13 15 1017.1 1016.1 0.8
22/12:59am 8.7 3.8 8.6 99 0.1 SE 24 28 13 15 1017.1 1016.1 0.8
22/12:30am 8.7 5.2 8.6 99 0.1 SE 17 22 9 12 1017.5 1016.5 0.8
22/12:27am 8.8 4.9 8.7 99 0.1 SE 19 22 10 12 1017.6 1016.6 0.8
22/12:00am 8.7 4.8 8.6 99 0.1 SE 19 20 10 11 1017.7 1016.7 0.8
 
Date/Time
EST
Temp
°C
App
Temp
°C
Dew
Point
Rel
Hum
%
Delta-T
°C
Wind Press
QNH
hPa
Press
MSL
hPa
Rain
since 9 am
mm
Dir
 
Spd
km/h
Gust
km/h
Spd
kts
Gust
kts
21/11:47pm 8.8 4.7 8.5 98 0.2 SE 20 28 11 15 1017.8 1016.8 0.8
21/11:30pm 8.9 4.7 8.3 96 0.3 SSE 20 26 11 14 1017.9 1016.9 0.6
21/11:25pm 9.0 4.4 8.2 95 0.4 SSE 22 32 12 17 1017.9 1016.9 0.4
21/11:00pm 9.3 5.1 8.4 94 0.5 SE 20 26 11 14 1018.1 1017.1 0.0
21/10:59pm 9.3 5.1 8.4 94 0.5 SE 20 24 11 13 1018.1 1017.1 0.0
21/10:30pm 9.8 6.5 8.1 89 0.9 ESE 15 20 8 11 1018.2 1017.2 0.0
21/10:00pm 10.7 7.9 10.1 96 0.3 NW 15 20 8 11 1018.1 1017.1 0.0
21/09:30pm 10.8 6.7 10.0 95 0.4 NNW 22 30 12 16 1018.1 1017.1 0.0
21/09:08pm 10.9 6.4 10.1 95 0.4 NW 24 28 13 15 1018.0 1017.0 0.0
21/09:00pm 10.9 6.9 10.3 96 0.3 NW 22 26 12 14 1017.9 1016.9 0.0
21/08:30pm 11.2 7.1 10.1 93 0.6 NW 22 30 12 16 1018.0 1017.0 0.0
21/08:04pm 11.4 7.7 10.3 93 0.6 NW 20 26 11 14 1018.0 1017.0 0.0
21/08:00pm 11.5 7.8 10.2 92 0.7 NW 20 26 11 14 1018.0 1017.0 0.0
21/07:30pm 11.3 9.1 10.8 97 0.3 NW 13 15 7 8 1018.1 1017.1 0.0
21/07:00pm 11.8 10.9 10.7 93 0.6 W 6 6 3 3 1018.0 1017.0 0.0
21/06:37pm 11.8 11.2 10.4 91 0.7 S 4 7 2 4 1018.1 1017.1 0.0
21/06:30pm 11.8 12.0 10.4 91 0.7 CALM 0 7 0 4 1018.1 1017.1 0.0
21/06:00pm 11.8 10.2 10.2 90 0.9 W 9 9 5 5 1017.9 1016.9 0.0
21/05:30pm 11.8 10.8 10.4 91 0.7 NW 6 7 3 4 1017.8 1016.8 0.0
21/05:00pm 12.4 10.5 10.5 88 1.0 WNW 11 15 6 8 1017.6 1016.6 0.0
21/04:30pm 12.7 10.3 10.2 85 1.3 NNW 13 17 7 9 1017.4 1016.3 0.0
21/04:00pm 12.5 11.0 10.7 89 1.0 NNW 9 11 5 6 1017.5 1016.5 0.0
21/03:30pm 12.7 10.4 10.6 87 1.1 NW 13 17 7 9 1017.8 1016.8 0.0
21/03:18pm 12.8 10.5 10.3 85 1.3 NNW 13 17 7 9 1017.8 1016.8 0.0
21/03:00pm 13.2 10.2 10.6 84 1.4 NW 17 20 9 11 1017.8 1016.8 0.0
21/02:44pm 13.3 12.2 10.5 83 1.5 NNW 7 9 4 5 1018.0 1017.0 0.0
21/02:30pm 12.7 11.1 10.2 85 1.3 NW 9 13 5 7 1018.0 1017.0 0.0
21/02:00pm 13.4 11.2 10.9 85 1.4 NW 13 17 7 9 1018.3 1017.3 0.0
21/01:30pm 13.2 9.8 10.4 83 1.5 NW 19 22 10 12 1018.7 1017.7 0.0
21/01:00pm 12.5 8.9 10.7 89 1.0 NW 20 28 11 15 1019.0 1018.0 0.0
21/12:30pm 12.4 9.6 10.1 86 1.2 NW 15 19 8 10 1019.2 1018.2 0.0
21/12:23pm 12.5 10.3 10.7 89 1.0 NW 13 17 7 9 1019.2 1018.2 0.0
21/12:00pm 12.1 9.1 10.8 92 0.7 NNW 17 19 9 10 1019.4 1018.4 0.0
21/11:46am 11.6 8.6 10.7 94 0.5 NW 17 20 9 11 1019.9 1019.0 0.0
21/11:30am 11.6 8.1 10.3 92 0.7 NW 19 22 10 12 1020.3 1019.3 0.0
21/11:07am 11.5 8.7 11.2 98 0.2 WNW 17 20 9 11 1020.5 1019.5 0.0
21/11:00am 11.4 8.6 11.2 99 0.1 WNW 17 20 9 11 1020.5 1019.5 0.0
21/10:30am 11.1 8.2 10.9 99 0.1 NW 17 22 9 12 1020.8 1019.8 0.0
21/10:00am 11.0 9.6 10.8 99 0.1 NW 9 11 5 6 1020.5 1019.5 0.0
21/09:30am 10.9 8.7 10.7 99 0.1 NNW 13 19 7 10 1020.9 1019.9 0.0
21/09:00am 10.8 7.2 10.6 99 0.1 NNW 20 24 11 13 1020.7 1019.7 21.8
21/08:50am 10.7 7.3 10.5 99 0.1 NNW 19 24 10 13 1020.6 1019.6 21.8
21/08:30am 10.7 8.0 10.5 99 0.1 NW 15 19 8 10 1020.5 1019.5 21.8
21/08:00am 10.6 6.2 10.4 99 0.1 NNW 24 28 13 15 1020.5 1019.5 21.6
21/07:45am 10.6 7.0 10.4 99 0.1 NW 20 26 11 14 1020.4 1019.4 21.6
21/07:30am 10.5 7.4 10.3 99 0.1 NNW 17 20 9 11 1020.0 1019.1 21.6
21/07:07am 10.5 7.0 10.3 99 0.1 NNW 19 24 10 13 1019.8 1018.8 21.6
21/07:00am 10.5 6.8 10.3 99 0.1 NNW 20 26 11 14 1019.6 1018.6 21.6
21/06:30am 10.7 6.7 10.5 99 0.1 NNW 22 28 12 15 1019.6 1018.6 21.6
21/06:10am 10.6 6.6 10.4 99 0.1 NW 22 30 12 16 1019.2 1018.2 21.6
21/06:03am 10.6 7.2 10.4 99 0.1 NW 19 24 10 13 1018.8 1017.8 21.6
21/06:00am 10.6 7.5 10.4 99 0.1 NNW 17 24 9 13 1018.5 1017.5 21.6
21/05:52am 10.6 7.5 10.4 99 0.1 NNW 17 24 9 13 1018.3 1017.3 21.6
21/05:30am 10.8 6.8 10.6 99 0.1 NW 22 26 12 14 1018.7 1017.7 21.6
21/05:00am 10.7 6.7 10.5 99 0.1 NW 22 32 12 17 1019.1 1018.1 21.6
21/04:48am 10.9 7.9 10.7 99 0.1 NW 17 32 9 17 1018.8 1017.8 21.6
21/04:46am 10.8 8.5 10.6 99 0.1 NW 13 26 7 14 1018.7 1017.7 21.6
21/04:43am 10.8 9.3 10.6 99 0.1 NNW 9 17 5 9 1018.4 1017.4 21.6
21/04:30am 10.8 7.8 10.6 99 0.1 NW 17 22 9 12 1018.7 1017.7 21.4
21/04:00am 11.0 6.0 10.8 99 0.1 NW 28 33 15 18 1019.4 1018.4 21.0
21/03:47am 11.0 6.0 10.8 99 0.1 NW 28 33 15 18 1019.4 1018.4 21.0
21/03:36am 11.1 6.5 10.9 99 0.1 WNW 26 30 14 16 1019.3 1018.3 21.0
21/03:30am 11.1 6.8 10.8 98 0.2 NW 24 30 13 16 1019.0 1018.0 21.0
21/03:02am 11.3 8.1 11.1 99 0.1 N 19 24 10 13 1018.1 1017.1 21.0
21/03:00am 11.4 8.2 11.2 99 0.1 N 19 24 10 13 1018.1 1017.1 21.0
21/02:50am 11.4 9.3 11.2 99 0.1 N 13 20 7 11 1018.5 1017.5 21.0
21/02:30am 11.3 8.4 11.1 99 0.1 NNW 17 22 9 12 1019.5 1018.5 20.8
21/02:00am 11.4 8.0 11.2 99 0.1 NNW 20 24 11 13 1019.9 1019.0 20.6
21/01:30am 11.8 9.1 11.6 99 0.1 NNW 17 22 9 12 1020.2 1019.2 20.0
21/01:18am 11.7 9.7 11.5 99 0.1 NW 13 17 7 9 1020.3 1019.3 19.8
21/01:00am 11.6 9.6 11.4 99 0.1 NW 13 15 7 8 1020.5 1019.5 19.6
21/12:42am 11.9 9.6 11.6 98 0.2 NW 15 17 8 9 1020.4 1019.4 19.4
21/12:30am 11.9 9.0 11.1 95 0.4 NNW 17 19 9 10 1020.3 1019.3 19.4
21/12:00am 12.0 9.9 11.2 95 0.4 NNW 13 19 7 10 1020.5 1019.5 19.2
 
Date/Time
EST
Temp
°C
App
Temp
°C
Dew
Point
Rel
Hum
%
Delta-T
°C
Wind Press
QNH
hPa
Press
MSL
hPa
Rain
since 9 am
mm
Dir
 
Spd
km/h
Gust
km/h
Spd
kts
Gust
kts
20/11:30pm 12.1 10.0 11.0 93 0.6 NNW 13 17 7 9 1020.6 1019.6 19.2
20/11:13pm 12.1 9.9 10.7 91 0.8 NNW 13 19 7 10 1020.4 1019.4 19.2
20/11:00pm 12.3 10.7 11.4 94 0.5 NNW 11 13 6 7 1020.6 1019.6 19.0
20/10:52pm 12.2 10.7 11.9 98 0.2 WNW 11 15 6 8 1020.6 1019.6 19.0
20/10:30pm 12.5 10.2 11.6 94 0.5 NNW 15 20 8 11 1020.6 1019.6 18.8
20/10:23pm 12.5 9.9 12.0 97 0.3 NNW 17 22 9 12 1020.7 1019.7 18.8
20/10:00pm 12.3 9.7 12.1 99 0.1 NW 17 24 9 13 1020.6 1019.6 18.8
20/09:55pm 12.4 10.9 11.9 97 0.3 WNW 11 19 6 10 1020.4 1019.4 18.8
20/09:31pm 12.6 12.0 12.4 99 0.1 NNW 7 13 4 7 1020.2 1019.2 18.8
20/09:30pm 12.6 11.6 12.4 99 0.1 NNW 9 13 5 7 1020.2 1019.2 18.8
20/09:00pm 12.4 11.0 12.2 99 0.1 NW 11 17 6 9 1020.2 1019.2 18.6
20/08:48pm 12.5 10.4 12.3 99 0.1 WNW 15 19 8 10 1020.3 1019.3 18.6
20/08:35pm 12.5 10.0 12.3 99 0.1 NW 17 22 9 12 1020.0 1019.1 18.6
20/08:30pm 12.6 9.7 12.4 99 0.1 NW 19 24 10 13 1019.9 1019.0 18.6
20/08:01pm 12.5 10.0 12.3 99 0.1 NNW 17 22 9 12 1019.8 1018.8 18.6
20/08:00pm 12.6 10.1 12.4 99 0.1 NNW 17 22 9 12 1019.8 1018.8 18.6
20/07:39pm 12.5 8.3 12.3 99 0.1 NW 26 35 14 19 1019.7 1018.7 18.2
20/07:30pm 12.6 7.6 12.3 98 0.2 NW 30 37 16 20 1019.7 1018.7 18.0
20/07:07pm 13.2 10.2 11.9 92 0.7 NW 19 24 10 13 1019.3 1018.3 16.2
20/07:00pm 13.2 10.0 11.9 92 0.7 WNW 20 26 11 14 1019.2 1018.2 16.0
20/06:30pm 13.7 10.6 12.1 90 0.9 NNW 20 30 11 16 1018.5 1017.5 15.8
20/06:04pm 13.5 9.4 12.7 95 0.5 NW 26 33 14 18 1018.4 1017.4 15.6
20/06:00pm 13.2 9.9 12.7 97 0.3 NW 22 32 12 17 1018.4 1017.4 15.4
20/05:34pm 13.4 10.8 12.0 91 0.8 NW 17 35 9 19 1018.3 1017.3 14.0
20/05:30pm 13.6 12.5 12.0 90 0.9 NNE 9 17 5 9 1018.1 1017.1 13.0
20/05:11pm 14.1 11.4 12.8 92 0.7 S 19 46 10 25 1017.4 1016.3 9.4
20/05:09pm 14.6 12.7 13.0 90 0.9 ESE 15 46 8 25 1017.1 1016.1 7.6
20/05:00pm 14.7 14.2 12.6 87 1.2 E 7 13 4 7 1017.1 1016.1 7.6
20/04:30pm 14.5 12.9 12.7 89 1.0 NW 13 15 7 8 1017.0 1016.0 7.6
20/04:03pm 14.4 13.3 13.0 91 0.8 NW 11 15 6 8 1017.0 1016.0 7.6
20/04:00pm 14.4 13.2 12.8 90 0.9 NW 11 17 6 9 1017.0 1016.0 7.6
20/03:33pm 16.3 13.3 13.6 84 1.6 W 22 35 12 19 1017.0 1016.0 1.2
20/03:30pm 17.0 14.7 14.1 83 1.7 W 19 24 10 13 1017.0 1016.0 0.8
20/03:00pm 18.2 14.4 13.5 74 2.8 NW 26 35 14 19 1016.8 1015.8 0.6
20/02:30pm 17.9 13.8 13.8 77 2.4 NW 28 35 15 19 1016.9 1015.9 0.6
20/02:00pm 17.8 13.7 13.7 77 2.4 WNW 28 37 15 20 1017.1 1016.1 0.6
20/01:30pm 17.5 11.1 13.2 76 2.5 NW 39 50 21 27 1017.0 1016.0 0.6
20/01:00pm 17.3 11.3 13.4 78 2.3 NW 37 48 20 26 1017.5 1016.5 0.6
20/12:48pm 18.0 13.4 14.5 80 2.1 NW 32 43 17 23 1017.8 1016.8 0.6
20/12:30pm 16.7 11.8 13.6 82 1.8 NW 32 39 17 21 1018.1 1017.1 0.6
20/12:05pm 16.6 11.6 13.5 82 1.8 NW 32 41 17 22 1018.4 1017.4 0.6
20/12:00pm 16.2 11.1 13.1 82 1.8 NW 32 41 17 22 1018.4 1017.4 0.6
20/11:30am 16.0 10.8 13.3 84 1.6 NW 33 43 18 23 1019.1 1018.1 0.6
20/11:00am 14.7 10.0 13.1 90 0.9 NW 30 33 16 18 1019.6 1018.6 0.6
20/10:30am 14.2 10.3 13.4 95 0.5 NW 26 30 14 16 1019.9 1019.0 0.6
20/10:00am 13.3 9.7 13.0 98 0.2 NW 24 30 13 16 1020.0 1019.1 0.4
20/09:40am 12.9 9.9 12.7 99 0.1 NW 20 26 11 14 1020.4 1019.4 0.4
20/09:30am 12.8 9.8 12.6 99 0.1 NW 20 24 11 13 1020.6 1019.6 0.4
20/09:00am 12.8 10.6 12.2 96 0.3 NW 15 22 8 12 1020.7 1019.7 9.4
20/08:48am 13.3 10.1 12.0 92 0.7 WSW 20 33 11 18 1020.7 1019.7 7.8
20/08:30am 14.0 10.4 12.0 88 1.1 NW 22 28 12 15 1019.8 1018.8 6.6
20/08:00am 13.7 10.6 11.7 88 1.1 WNW 19 22 10 12 1019.8 1018.8 6.6
20/07:30am 13.2 9.8 11.4 89 1.0 NW 20 26 11 14 1019.3 1018.3 6.6
20/07:00am 12.3 9.0 11.5 95 0.4 NW 20 22 11 12 1019.1 1018.1 6.6
20/06:30am 12.0 8.6 11.4 96 0.3 NW 20 22 11 12 1018.9 1017.9 6.6
20/06:00am 12.0 8.6 11.2 95 0.4 WNW 20 24 11 13 1018.5 1017.5 6.6
20/05:30am 12.0 8.2 11.2 95 0.4 NW 22 26 12 14 1018.2 1017.2 6.6
20/05:00am 12.0 7.8 11.2 95 0.4 NW 24 28 13 15 1018.1 1017.1 6.6
20/04:30am 12.0 8.3 11.5 97 0.3 NW 22 28 12 15 1018.2 1017.2 6.4
20/04:25am 12.1 8.1 11.8 98 0.2 NW 24 32 13 17 1018.2 1017.2 6.4
20/04:05am 11.8 7.0 11.5 98 0.2 NW 28 33 15 18 1018.2 1017.2 6.4
20/04:00am 12.0 6.8 11.7 98 0.2 NW 30 33 16 18 1018.1 1017.1 6.4
20/03:30am 12.3 7.6 12.1 99 0.1 NNW 28 35 15 19 1018.1 1017.1 6.4
20/03:10am 12.3 7.3 12.1 99 0.1 NNW 30 39 16 21 1018.1 1017.1 6.4
20/03:00am 12.3 7.6 12.1 99 0.1 NW 28 35 15 19 1018.2 1017.2 6.4
20/02:53am 12.3 8.0 12.1 99 0.1 NW 26 33 14 18 1018.2 1017.2 6.4
20/02:30am 12.3 8.4 12.1 99 0.1 NW 24 28 13 15 1018.4 1017.4 6.4
20/02:21am 12.3 8.8 12.1 99 0.1 NW 22 28 12 15 1018.7 1017.7 6.2
20/02:00am 12.5 11.1 12.3 99 0.1 NW 11 15 6 8 1018.4 1017.4 5.0
20/01:30am 13.0 8.6 11.7 92 0.7 WNW 26 37 14 20 1018.4 1017.4 3.0
20/01:26am 13.4 9.3 11.6 89 1.0 WNW 24 37 13 20 1018.3 1017.3 1.8
20/01:00am 13.4 10.3 11.6 89 1.0 NW 19 22 10 12 1018.2 1017.2 0.4
20/12:30am 13.3 10.7 11.9 91 0.8 NW 17 19 9 10 1018.5 1017.5 0.4
20/12:00am 14.3 10.9 11.1 81 1.8 NW 20 24 11 13 1018.9 1017.9 0.2
 
Date/Time
EST
Temp
°C
App
Temp
°C
Dew
Point
Rel
Hum
%
Delta-T
°C
Wind Press
QNH
hPa
Press
MSL
hPa
Rain
since 9 am
mm
Dir
 
Spd
km/h
Gust
km/h
Spd
kts
Gust
kts
19/11:30pm 14.5 11.0 10.9 79 2.0 WNW 20 26 11 14 1018.9 1017.9 0.2
19/11:00pm 14.5 10.6 10.9 79 2.0 NW 22 28 12 15 1019.0 1018.0 0.2
19/10:30pm 14.2 11.3 11.0 81 1.8 NW 17 24 9 13 1019.4 1018.4 0.2
19/10:00pm 14.3 10.9 11.3 82 1.7 W 20 28 11 15 1019.5 1018.5 0.0
19/09:30pm 14.8 10.8 10.6 76 2.3 WNW 22 28 12 15 1019.4 1018.4 0.0
19/09:00pm 14.3 9.6 10.5 78 2.1 NW 26 32 14 17 1019.2 1018.2 0.0
19/08:30pm 13.5 10.0 11.0 85 1.4 NW 20 24 11 13 1019.2 1018.2 0.0
19/08:00pm 13.3 9.9 11.2 87 1.1 WNW 20 28 11 15 1019.2 1018.2 0.0
19/07:55pm 13.6 9.7 10.9 84 1.5 WNW 22 28 12 15 1019.2 1018.2 0.0
19/07:37pm 13.9 8.3 10.3 79 1.9 NW 30 37 16 20 1019.0 1018.0 0.0
19/07:30pm 14.5 9.2 9.9 74 2.5 NW 28 32 15 17 1019.0 1018.0 0.0
19/07:00pm 15.3 9.1 9.4 68 3.2 NW 32 37 17 20 1018.7 1017.7 0.0

Other Formats:

Comma delimited format used in spreadsheet applications
http://www.bom.gov.au/fwo/IDN60801/IDN60801.95747.axf

JavaScript Object Notation format (JSON) in row-major order
http://www.bom.gov.au/fwo/IDN60801/IDN60801.95747.json